KRME/RME METAR and TAF weather

Enter ICAO airport designator
Station Type Date Time Source
KRME METAR 2019/12/09 13:53 UTC NOAA

KRME 091353Z 10009KT 10SM -RA OVC055 04/01 A3003 RMK AO2 RAB44 SLP172 P0000 T00390011


Station Type Date Time Source
KRME Decoded METAR 2019/12/09 13:53 UTC NOAA

GRIFFISS AIRFIELD, NY, United States (KRME) 43-14N 075-24W
Dec 09, 2019 - 08:53 AM EST / 2019.12.09 1353 UTC
Wind: from the E (100 degrees) at 10 MPH (9 KT):0
Visibility: 10 mile(s):0
Sky conditions: overcast
Weather: light rain
Precipitation last hour: A trace
Temperature: 39.0 F (3.9 C)
Dew Point: 34.0 F (1.1 C)
Relative Humidity: 81%
Pressure (altimeter): 30.03 in. Hg (1016 hPa)
ob: KRME 091353Z 10009KT 10SM -RA OVC055 04/01 A3003 RMK AO2 RAB44 SLP172 P0000 T00390011
cycle: 14

Station Type Date Time Source
KRME TAF 2019/12/09 12:40 UTC NOAA

TAF KRME 091138Z 0912/1012 14005KT P6SM OVC035
TEMPO 0913/0916 5SM -RA BR OVC025
FM091600 14006KT 2SM -RA BR OVC017 WS020/21030KT
FM091900 12010G20KT 3SM -RA BR OVC007 WS020/21045KT
FM100300 18009KT 3SM -RA BR OVC007 WS020/22045KT
FM101000 20007KT 3SM BR OVC011 WS020/24030KT

Example: see airport list